Time;durP1;ratioP1;P1;durP2;ratioP2;P2;SDS_P1;SDS_P2;PMS_P1;PMS_P2;Temp;Humidity;BMP_temperature;BMP_pressure;BME280_temperature;BME280_humidity;BME280_pressure;Samples;Min_cycle;Max_cycle;Signal;HPM_P1;HPM_P2
2023/06/26 00:01:29;;;;;;;9.10;6.90;;;;;;;13.91;81.42;100440.41;104258;277;113471;-55
2023/06/26 00:04:04;;;;;;;7.00;6.30;;;;;;;13.88;81.47;100441.79;104696;277;95013;-55
2023/06/26 00:06:38;;;;;;;8.40;6.80;;;;;;;13.88;81.64;100438.95;104295;277;97812;-55
2023/06/26 00:09:12;;;;;;;;;;;;;;;13.86;81.67;100443.20;104295;277;121120;-55
2023/06/26 00:11:46;;;;;;;8.20;7.30;;;;;;;13.83;81.74;100441.58;104756;277;104346;-55
2023/06/26 00:14:20;;;;;;;8.10;6.70;;;;;;;13.82;81.95;100437.11;104719;277;114794;-55
2023/06/26 00:16:52;;;;;;;;;;;;;;;13.80;81.92;100443.21;104043;277;96087;-55
2023/06/26 00:19:26;;;;;;;8.90;7.40;;;;;;;13.77;81.95;100435.61;104754;277;96330;-57
2023/06/26 00:22:00;;;;;;;8.30;7.00;;;;;;;13.74;81.94;100436.65;104246;277;121229;-57
2023/06/26 00:24:34;;;;;;;9.60;7.10;;;;;;;13.72;82.11;100433.34;104288;277;103977;-55
2023/06/26 00:27:09;;;;;;;7.90;6.60;;;;;;;13.75;82.28;100435.65;104263;277;114080;-55
2023/06/26 00:29:43;;;;;;;9.60;7.80;;;;;;;13.77;82.27;100433.94;104270;277;96804;-57
2023/06/26 00:32:17;;;;;;;9.30;7.40;;;;;;;13.76;82.40;100436.61;104300;277;96766;-57
2023/06/26 00:34:50;;;;;;;;;;;;;;;13.75;82.30;100435.27;104300;277;119191;-57
2023/06/26 00:37:24;;;;;;;10.00;7.30;;;;;;;13.72;82.28;100432.69;104725;277;104227;-57
2023/06/26 00:39:58;;;;;;;8.00;7.20;;;;;;;13.71;82.44;100432.27;104739;277;114189;-57
2023/06/26 00:42:32;;;;;;;8.90;6.40;;;;;;;13.68;82.26;100437.15;104265;277;96784;-57
2023/06/26 00:45:07;;;;;;;9.40;7.30;;;;;;;13.66;82.60;100432.77;104297;277;98553;-55
2023/06/26 00:47:41;;;;;;;9.00;7.50;;;;;;;13.61;82.73;100432.14;104735;277;120910;-55
2023/06/26 00:50:17;;;;;;;;;;;;;;;13.61;82.70;100429.92;104755;277;105817;-55
2023/06/26 00:52:51;;;;;;;9.80;7.90;;;;;;;13.58;82.73;100430.38;104271;277;114739;-55
2023/06/26 00:55:24;;;;;;;;;;;;;;;13.53;82.82;100426.98;104299;277;95884;-55
2023/06/26 00:57:58;;;;;;;10.40;7.90;;;;;;;13.49;82.89;100425.73;104045;277;97820;-56
2023/06/26 01:00:32;;;;;;;8.50;7.40;;;;;;;13.46;82.79;100424.94;104306;277;120220;-58
2023/06/26 01:03:06;;;;;;;8.60;7.40;;;;;;;13.43;83.10;100422.94;104736;277;105068;-57
2023/06/26 01:05:39;;;;;;;;;;;;;;;13.43;83.12;100420.42;104734;277;114146;-56
2023/06/26 01:08:15;;;;;;;10.00;7.70;;;;;;;13.45;83.28;100415.17;104268;277;97607;-56
2023/06/26 01:10:49;;;;;;;10.10;7.60;;;;;;;13.46;83.47;100414.04;104766;277;96704;-56
2023/06/26 01:13:24;;;;;;;12.60;7.80;;;;;;;13.48;83.40;100413.80;104742;277;119244;-56
2023/06/26 01:15:56;;;;;;;;;;;;;;;13.48;83.50;100417.65;104778;277;104299;-56
2023/06/26 01:18:31;;;;;;;10.80;8.10;;;;;;;13.44;83.43;100416.17;104712;277;115120;-56
2023/06/26 01:21:06;;;;;;;12.50;8.00;;;;;;;13.41;83.48;100412.20;104767;277;95114;-56
2023/06/26 01:23:58;;;;;;;11.60;8.20;;;;;;;13.32;83.51;100408.56;104306;277;97675;-56
2023/06/26 01:26:35;;;;;;;10.60;8.70;;;;;;;13.30;83.57;100405.27;104284;277;120317;-58
2023/06/26 01:29:15;;;;;;;10.50;8.70;;;;;;;13.30;83.59;100403.34;104302;277;104573;-55
2023/06/26 01:31:50;;;;;;;10.90;8.80;;;;;;;13.25;83.52;100401.63;104255;277;114270;-55
2023/06/26 01:34:24;;;;;;;9.50;8.50;;;;;;;13.22;83.53;100401.16;104725;277;96212;-58
2023/06/26 01:36:59;;;;;;;11.00;8.20;;;;;;;13.23;83.62;100404.80;104756;277;97863;-58
2023/06/26 01:39:34;;;;;;;9.30;7.70;;;;;;;13.20;83.63;100400.41;104306;277;120718;-58
2023/06/26 01:42:09;;;;;;;15.10;7.90;;;;;;;13.12;83.54;100400.98;104750;281;106004;-58
2023/06/26 01:44:47;;;;;;;10.50;8.50;;;;;;;13.07;83.72;100401.04;104058;277;115445;-56
2023/06/26 01:47:26;;;;;;;10.20;7.80;;;;;;;13.04;83.69;100399.72;104051;279;96822;-56
2023/06/26 01:50:07;;;;;;;10.60;8.10;;;;;;;13.02;83.73;100398.75;104307;281;97702;-56
2023/06/26 01:52:47;;;;;;;10.00;8.30;;;;;;;12.98;83.78;100396.03;104286;277;120061;-56
2023/06/26 01:55:26;;;;;;;10.40;7.60;;;;;;;12.96;83.71;100397.19;104277;277;104774;-56
2023/06/26 01:58:01;;;;;;;10.00;7.80;;;;;;;12.92;83.87;100388.83;104288;277;115189;-56
2023/06/26 02:00:36;;;;;;;10.20;8.40;;;;;;;12.88;83.96;100389.70;104723;277;96498;-58
2023/06/26 02:03:09;;;;;;;10.10;7.50;;;;;;;12.86;83.98;100383.15;104298;277;97051;-58
2023/06/26 02:05:44;;;;;;;8.70;7.80;;;;;;;12.85;84.00;100385.65;104306;277;121035;-58
2023/06/26 02:08:19;;;;;;;10.20;8.10;;;;;;;12.84;84.03;100384.19;104274;277;104360;-58
2023/06/26 02:10:53;;;;;;;11.40;8.40;;;;;;;12.87;84.14;100385.23;104270;277;113265;-55
2023/06/26 02:13:26;;;;;;;9.40;8.10;;;;;;;12.91;84.34;100387.38;104722;277;97091;-56
2023/06/26 02:16:01;;;;;;;10.10;7.80;;;;;;;12.91;84.22;100387.42;104101;277;98603;-55
2023/06/26 02:18:35;;;;;;;9.70;8.00;;;;;;;12.87;84.34;100387.08;104093;277;120076;-55
2023/06/26 02:21:12;;;;;;;9.40;8.40;;;;;;;12.80;84.35;100389.44;103997;278;105206;-57
2023/06/26 02:23:46;;;;;;;9.70;8.00;;;;;;;12.76;84.50;100387.58;104074;278;114546;-57
2023/06/26 02:26:20;;;;;;;11.20;7.80;;;;;;;12.74;84.59;100387.13;104127;278;95247;-57
2023/06/26 02:28:54;;;;;;;10.60;7.80;;;;;;;12.75;84.70;100381.91;104158;278;98009;-57
2023/06/26 02:31:28;;;;;;;8.40;7.50;;;;;;;12.77;84.60;100379.05;104133;278;120285;-57
2023/06/26 02:34:02;;;;;;;11.30;7.90;;;;;;;12.76;84.58;100378.52;104213;277;104738;-57
2023/06/26 02:36:36;;;;;;;10.30;7.40;;;;;;;12.76;84.78;100377.86;104578;278;114164;-57
2023/06/26 02:39:10;;;;;;;10.30;7.60;;;;;;;12.79;84.86;100376.88;104607;278;95811;-57
2023/06/26 02:41:45;;;;;;;10.90;7.50;;;;;;;12.86;84.79;100377.98;104171;278;96852;-57
2023/06/26 02:44:18;;;;;;;11.30;8.70;;;;;;;12.86;84.82;100379.36;104633;278;121244;-56
2023/06/26 02:46:53;;;;;;;8.10;7.10;;;;;;;12.85;84.74;100378.81;104219;278;104127;-56
2023/06/26 02:49:27;;;;;;;8.40;7.50;;;;;;;12.84;84.80;100380.48;104181;278;114199;-58
2023/06/26 02:52:01;;;;;;;9.40;7.60;;;;;;;12.85;84.94;100385.07;104186;278;96698;-58
2023/06/26 02:54:36;;;;;;;11.50;7.60;;;;;;;12.87;84.89;100386.77;104188;278;97595;-58
2023/06/26 02:57:08;;;;;;;;;;;;;;;12.88;84.96;100388.05;104238;278;119885;-58
2023/06/26 02:59:42;;;;;;;12.30;8.10;;;;;;;12.90;85.07;100391.45;104188;278;106146;-56
2023/06/26 03:02:16;;;;;;;9.70;7.10;;;;;;;12.95;85.12;100390.61;104165;278;113898;-56
2023/06/26 03:04:52;;;;;;;9.90;7.50;;;;;;;13.05;85.07;100382.75;104214;278;96381;-56
2023/06/26 03:07:26;;;;;;;8.40;7.20;;;;;;;13.13;85.08;100381.58;104173;278;98250;-55
2023/06/26 03:10:00;;;;;;;8.20;7.10;;;;;;;13.19;85.15;100382.67;104207;278;119386;-55
2023/06/26 03:12:34;;;;;;;7.90;7.10;;;;;;;13.25;85.22;100384.02;104177;278;105638;-56
2023/06/26 03:15:11;;;;;;;9.80;7.00;;;;;;;13.32;85.11;100385.39;104287;277;114314;-56
2023/06/26 03:17:45;;;;;;;10.80;7.20;;;;;;;13.40;85.17;100384.48;104284;277;95877;-56
2023/06/26 03:20:19;;;;;;;10.00;7.50;;;;;;;13.50;85.15;100383.07;104300;277;98151;-56
2023/06/26 03:22:51;;;;;;;;;;;;;;;13.58;85.25;100380.52;104320;277;120473;-57
2023/06/26 03:25:26;;;;;;;9.70;7.10;;;;;;;13.66;85.26;100377.98;104334;277;105463;-57
2023/06/26 03:27:59;;;;;;;9.00;7.40;;;;;;;13.79;85.38;100379.17;104770;277;114399;-57
2023/06/26 03:30:33;;;;;;;10.10;8.20;;;;;;;14.34;85.01;100380.14;104058;277;95324;-54
2023/06/26 03:33:08;;;;;;;8.70;7.40;;;;;;;15.37;83.74;100375.94;104780;281;97942;-55
2023/06/26 03:35:42;;;;;;;8.40;7.40;;;;;;;15.98;82.89;100374.82;104317;277;120702;-57
2023/06/26 03:38:16;;;;;;;9.10;7.30;;;;;;;16.83;81.96;100372.16;104296;277;104502;-57
2023/06/26 03:40:50;;;;;;;9.40;7.00;;;;;;;18.12;80.58;100369.73;104305;277;114551;-56
2023/06/26 03:43:22;;;;;;;;;;;;;;;19.44;78.50;100367.77;104309;277;95009;-56
2023/06/26 03:45:56;;;;;;;10.00;7.20;;;;;;;20.42;76.91;100369.04;104749;277;97453;-58
2023/06/26 03:48:29;;;;;;;;;;;;;;;21.39;74.94;100371.55;104308;277;120034;-58
2023/06/26 03:51:03;;;;;;;7.70;6.70;;;;;;;22.29;73.21;100368.73;104305;277;104791;-58
2023/06/26 03:53:37;;;;;;;8.00;6.90;;;;;;;22.98;71.66;100364.70;104716;277;113868;-58
2023/06/26 03:56:11;;;;;;;8.20;7.40;;;;;;;23.60;69.98;100366.72;104743;277;93235;-58
2023/06/26 03:58:44;;;;;;;;;;;;;;;24.21;68.32;100367.39;104306;269;97567;-58
2023/06/26 04:01:19;;;;;;;8.30;6.70;;;;;;;24.84;66.32;100366.67;104321;277;120158;-56
2023/06/26 04:03:53;;;;;;;7.90;7.10;;;;;;;25.37;64.99;100368.70;104340;277;105375;-57
2023/06/26 04:06:27;;;;;;;10.70;7.60;;;;;;;25.75;63.22;100367.38;104303;277;114782;-56
2023/06/26 04:09:00;;;;;;;;;;;;;;;26.18;62.13;100367.76;104318;277;91965;-57
2023/06/26 04:11:34;;;;;;;9.20;7.10;;;;;;;26.59;61.17;100366.09;104319;277;97158;-56
2023/06/26 04:14:08;;;;;;;8.30;7.50;;;;;;;27.10;59.70;100361.55;104290;277;121598;-59
2023/06/26 04:16:42;;;;;;;9.60;7.50;;;;;;;27.73;58.67;100363.02;104311;277;105045;-59
2023/06/26 04:19:17;;;;;;;8.50;7.70;;;;;;;28.00;57.36;100367.02;104347;277;113541;-57
2023/06/26 04:21:51;;;;;;;8.80;7.90;;;;;;;28.53;55.97;100364.84;104259;277;93167;-57
2023/06/26 04:24:25;;;;;;;9.50;7.90;;;;;;;28.98;54.77;100362.74;104298;277;97163;-57
2023/06/26 04:26:59;;;;;;;8.60;7.70;;;;;;;28.73;53.50;100363.27;104280;277;120602;-57
2023/06/26 04:29:33;;;;;;;8.80;7.90;;;;;;;27.79;53.12;100364.48;104284;277;106037;-54
2023/06/26 04:32:08;;;;;;;9.20;8.20;;;;;;;27.28;53.35;100363.45;104257;277;114259;-54
2023/06/26 04:34:43;;;;;;;8.70;7.90;;;;;;;27.22;52.71;100366.38;104284;277;94703;-57
2023/06/26 04:37:18;;;;;;;8.70;7.90;;;;;;;26.79;52.61;100360.31;104286;277;96810;-55
2023/06/26 04:39:52;;;;;;;9.00;8.10;;;;;;;27.17;52.21;100364.49;104285;277;120670;-55
2023/06/26 04:42:26;;;;;;;9.20;8.30;;;;;;;26.38;51.90;100365.96;104315;277;105448;-55
2023/06/26 04:45:02;;;;;;;8.70;7.50;;;;;;;25.27;53.01;100366.12;104267;277;114618;-57
2023/06/26 04:47:36;;;;;;;9.40;8.40;;;;;;;25.04;53.15;100369.25;104256;277;95046;-57
2023/06/26 04:50:11;;;;;;;8.40;7.60;;;;;;;25.75;53.13;100371.85;104783;277;97606;-55
2023/06/26 04:52:45;;;;;;;8.80;7.80;;;;;;;27.24;52.49;100362.92;104318;277;120970;-55
2023/06/26 04:55:21;;;;;;;8.50;7.50;;;;;;;28.56;51.16;100361.44;104071;279;106074;-55
2023/06/26 04:57:55;;;;;;;7.90;7.20;;;;;;;29.64;49.96;100359.20;104297;277;114220;-55
2023/06/26 05:00:29;;;;;;;8.30;7.00;;;;;;;30.40;48.47;100361.61;104288;277;94775;-55
2023/06/26 05:03:04;;;;;;;8.40;7.30;;;;;;;31.18;47.25;100360.77;104307;277;97926;-55
2023/06/26 05:05:38;;;;;;;8.00;7.20;;;;;;;31.73;46.51;100355.41;104284;277;121245;-55
2023/06/26 05:08:26;;;;;;;7.00;6.30;;;;;;;31.78;45.68;100356.70;104288;277;106055;-55
2023/06/26 05:11:00;;;;;;;8.00;7.30;;;;;;;32.39;44.48;100355.27;104761;277;115024;-55
2023/06/26 05:13:34;;;;;;;7.20;6.60;;;;;;;32.85;43.58;100355.48;104266;277;95068;-54
2023/06/26 05:16:09;;;;;;;6.80;6.10;;;;;;;33.26;42.55;100352.77;104038;277;97207;-54
2023/06/26 05:18:45;;;;;;;7.50;6.80;;;;;;;33.59;42.23;100353.08;104728;277;120372;-55
2023/06/26 05:21:20;;;;;;;8.20;7.40;;;;;;;33.89;41.25;100351.65;104288;277;104580;-55
2023/06/26 05:23:57;;;;;;;8.40;7.60;;;;;;;34.11;40.80;100344.96;104276;265;113733;-55
2023/06/26 05:26:32;;;;;;;7.80;7.10;;;;;;;34.42;39.67;100346.60;104281;277;94663;-55
2023/06/26 05:29:07;;;;;;;7.40;6.70;;;;;;;34.54;38.59;100345.33;104311;277;96869;-55
2023/06/26 05:31:46;;;;;;;7.60;6.80;;;;;;;34.89;38.26;100340.81;104296;277;120379;-55
2023/06/26 05:34:23;;;;;;;6.50;6.00;;;;;;;35.33;37.71;100339.63;104324;277;104176;-55
2023/06/26 05:37:00;;;;;;;7.50;6.80;;;;;;;35.70;37.17;100334.54;104289;277;113665;-55
2023/06/26 05:39:36;;;;;;;7.40;6.70;;;;;;;35.88;36.32;100334.48;104305;277;93798;-55
2023/06/26 05:42:14;;;;;;;6.80;6.20;;;;;;;35.65;36.09;100335.61;104301;277;97631;-55
2023/06/26 05:44:48;;;;;;;6.40;5.80;;;;;;;35.83;36.07;100341.17;104308;277;120936;-57
2023/06/26 05:47:22;;;;;;;6.70;6.10;;;;;;;36.40;35.35;100343.15;104317;277;105586;-57
2023/06/26 05:49:58;;;;;;;6.90;5.70;;;;;;;36.13;35.12;100342.41;104291;277;113950;-57
2023/06/26 05:52:34;;;;;;;6.40;5.80;;;;;;;36.16;34.99;100338.02;104272;277;94048;-57
2023/06/26 05:55:10;;;;;;;7.20;6.50;;;;;;;36.42;34.60;100336.75;104341;277;98154;-59
2023/06/26 05:57:46;;;;;;;7.60;6.90;;;;;;;36.17;34.40;100333.77;104286;277;119993;-55
2023/06/26 06:00:22;;;;;;;7.30;6.50;;;;;;;36.32;34.60;100330.86;104299;277;105221;-55
2023/06/26 06:02:56;;;;;;;7.60;6.90;;;;;;;36.85;34.53;100329.39;104264;277;114315;-55
2023/06/26 06:05:31;;;;;;;6.50;5.80;;;;;;;37.41;33.50;100329.46;104269;277;94555;-55
2023/06/26 06:08:06;;;;;;;6.00;5.40;;;;;;;37.87;32.82;100326.48;104276;277;97533;-55
2023/06/26 06:10:40;;;;;;;5.40;5.00;;;;;;;38.12;31.97;100327.44;104254;277;121020;-55
2023/06/26 06:13:14;;;;;;;6.50;5.10;;;;;;;38.31;31.49;100327.61;104290;277;104804;-55
2023/06/26 06:15:48;;;;;;;6.10;5.50;;;;;;;38.69;31.23;100328.58;104277;277;113827;-55
2023/06/26 06:18:22;;;;;;;5.50;5.00;;;;;;;38.79;30.37;100328.52;104307;277;95088;-55
2023/06/26 06:20:56;;;;;;;5.80;5.30;;;;;;;38.91;29.92;100331.29;104746;277;97976;-58
2023/06/26 06:23:30;;;;;;;5.70;5.20;;;;;;;39.02;30.13;100327.49;104269;277;121289;-58
2023/06/26 06:26:04;;;;;;;5.70;5.20;;;;;;;38.93;30.05;100325.92;104301;277;105012;-58
2023/06/26 06:28:39;;;;;;;6.00;5.40;;;;;;;39.29;29.77;100321.98;104753;277;113841;-58
2023/06/26 06:31:13;;;;;;;5.70;5.20;;;;;;;39.42;29.23;100323.36;103802;279;94768;-58
2023/06/26 06:33:48;;;;;;;7.10;5.20;;;;;;;39.32;29.36;100319.02;104299;277;96673;-57
2023/06/26 06:36:22;;;;;;;6.70;5.20;;;;;;;39.82;28.81;100313.92;104293;277;120813;-56
2023/06/26 06:38:56;;;;;;;5.40;4.90;;;;;;;39.98;28.11;100313.86;104272;277;104178;-57
2023/06/26 06:41:31;;;;;;;6.00;5.10;;;;;;;40.02;27.78;100316.49;104247;277;113759;-58
2023/06/26 06:44:05;;;;;;;5.60;5.10;;;;;;;40.11;28.34;100311.73;104033;279;94970;-57
2023/06/26 06:46:39;;;;;;;5.00;4.60;;;;;;;40.32;27.13;100315.16;104319;277;96643;-57
2023/06/26 06:49:14;;;;;;;4.70;4.20;;;;;;;40.20;27.03;100310.27;104297;277;121142;-57
2023/06/26 06:51:48;;;;;;;5.40;4.90;;;;;;;40.33;26.75;100308.78;104272;281;105853;-58
2023/06/26 06:54:27;;;;;;;4.60;4.20;;;;;;;40.78;26.81;100307.69;104271;277;114166;-55
2023/06/26 06:57:03;;;;;;;4.60;4.20;;;;;;;41.19;25.53;100305.91;104301;277;93611;-55
2023/06/26 06:59:37;;;;;;;5.00;4.50;;;;;;;41.30;25.08;100301.20;104339;277;97245;-57
2023/06/26 07:02:11;;;;;;;4.70;3.90;;;;;;;41.35;24.87;100304.95;104294;277;119408;-58
2023/06/26 07:04:46;;;;;;;6.10;4.50;;;;;;;41.44;24.83;100303.46;104324;277;105785;-55
2023/06/26 07:07:23;;;;;;;5.10;4.60;;;;;;;40.66;24.71;100300.57;104322;277;114457;-55
2023/06/26 07:09:58;;;;;;;4.90;4.40;;;;;;;40.80;25.41;100306.55;104322;277;94287;-58
2023/06/26 07:12:33;;;;;;;5.00;4.60;;;;;;;40.61;25.19;100303.77;104294;277;96767;-58
2023/06/26 07:15:09;;;;;;;5.10;4.70;;;;;;;40.58;25.03;100302.67;104771;277;120415;-57
2023/06/26 07:17:45;;;;;;;4.90;4.40;;;;;;;40.99;24.75;100295.38;104273;277;106919;-57
2023/06/26 07:20:20;;;;;;;4.90;4.50;;;;;;;41.30;24.54;100296.19;104257;277;113972;-58
2023/06/26 07:22:55;;;;;;;4.80;4.40;;;;;;;41.65;24.65;100294.61;104672;277;94526;-57
2023/06/26 07:25:29;;;;;;;4.50;4.10;;;;;;;41.56;24.40;100292.06;104301;277;97379;-55
2023/06/26 07:28:04;;;;;;;4.50;4.10;;;;;;;41.55;24.20;100295.89;104312;277;120401;-55
2023/06/26 07:30:38;;;;;;;4.50;4.10;;;;;;;41.62;23.52;100300.94;104312;277;104931;-54
2023/06/26 07:33:13;;;;;;;5.20;4.40;;;;;;;41.12;23.95;100296.16;104290;277;113434;-55
2023/06/26 07:35:47;;;;;;;4.40;4.00;;;;;;;41.02;24.12;100293.44;104292;277;94322;-54
2023/06/26 07:38:21;;;;;;;4.70;4.30;;;;;;;41.26;24.14;100292.51;104298;277;97531;-55
2023/06/26 07:40:56;;;;;;;4.30;4.00;;;;;;;41.38;23.54;100291.05;104303;277;120905;-54
2023/06/26 07:43:31;;;;;;;4.00;3.70;;;;;;;41.59;23.58;100291.35;104310;277;104277;-54
2023/06/26 07:46:05;;;;;;;4.00;3.70;;;;;;;41.89;23.62;100286.41;104719;277;113962;-57
2023/06/26 07:48:41;;;;;;;3.80;3.50;;;;;;;41.94;22.70;100288.70;104722;277;94753;-57
2023/06/26 07:51:16;;;;;;;3.80;3.50;;;;;;;42.01;23.09;100289.76;104742;277;97304;-57
2023/06/26 07:53:50;;;;;;;4.90;3.80;;;;;;;41.89;22.80;100289.51;104297;277;120382;-55
2023/06/26 07:56:28;;;;;;;4.10;3.80;;;;;;;41.87;22.46;100290.88;104080;277;106416;-55
2023/06/26 07:59:04;;;;;;;4.20;3.90;;;;;;;41.92;21.99;100287.14;104290;277;114963;-62
2023/06/26 08:01:38;;;;;;;4.60;4.20;;;;;;;41.16;22.04;100286.87;104275;277;93820;-64
2023/06/26 08:04:13;;;;;;;3.90;3.50;;;;;;;40.88;22.24;100287.19;104334;277;97435;-60
2023/06/26 08:06:48;;;;;;;4.20;3.80;;;;;;;41.28;22.14;100286.37;104307;277;120345;-62
2023/06/26 08:09:24;;;;;;;4.90;4.40;;;;;;;41.46;22.05;100284.25;104737;277;104190;-61
2023/06/26 08:11:59;;;;;;;4.10;3.60;;;;;;;40.93;21.76;100282.45;104288;277;113461;-61
2023/06/26 08:14:34;;;;;;;4.00;3.60;;;;;;;41.12;21.55;100278.75;104284;277;94766;-62
2023/06/26 08:17:09;;;;;;;4.00;3.50;;;;;;;41.44;21.68;100282.30;104315;277;97475;-59
2023/06/26 08:19:43;;;;;;;4.20;3.80;;;;;;;40.61;21.55;100281.55;104264;277;121439;-59
2023/06/26 08:22:18;;;;;;;4.60;4.20;;;;;;;38.97;22.35;100285.00;104738;266;104785;-59
2023/06/26 08:24:52;;;;;;;4.20;3.90;;;;;;;37.60;23.32;100280.14;104282;277;114241;-56
2023/06/26 08:27:26;;;;;;;4.20;3.80;;;;;;;36.28;24.22;100278.65;104268;277;93198;-56
2023/06/26 08:30:00;;;;;;;3.60;3.20;;;;;;;34.98;24.63;100283.27;104774;277;98020;-57
2023/06/26 08:32:34;;;;;;;6.00;3.70;;;;;;;34.49;25.56;100284.73;104334;277;119897;-57
2023/06/26 08:35:10;;;;;;;7.20;3.90;;;;;;;35.26;25.67;100278.50;104762;277;104752;-54
2023/06/26 08:37:44;;;;;;;5.40;3.90;;;;;;;34.49;26.08;100281.89;104268;277;114979;-55
2023/06/26 08:40:19;;;;;;;4.20;3.80;;;;;;;33.66;27.12;100284.00;104313;277;94774;-55
2023/06/26 08:42:55;;;;;;;4.20;3.80;;;;;;;33.34;27.68;100279.05;104738;277;96486;-54
2023/06/26 08:45:29;;;;;;;4.40;3.90;;;;;;;33.60;28.46;100283.23;104261;277;119402;-56
2023/06/26 08:48:08;;;;;;;3.90;3.30;;;;;;;34.06;28.29;100284.31;104268;277;103838;-54
2023/06/26 08:50:43;;;;;;;4.20;3.30;;;;;;;34.67;28.41;100277.13;104294;277;113511;-56
2023/06/26 08:53:30;;;;;;;3.50;3.20;;;;;;;35.79;26.80;100274.05;104729;277;94491;-57
2023/06/26 08:56:05;;;;;;;3.60;3.20;;;;;;;36.72;26.30;100272.35;104271;277;97139;-57
2023/06/26 08:58:41;;;;;;;4.40;3.40;;;;;;;37.12;25.72;100267.56;104244;277;120209;-56
2023/06/26 09:01:16;;;;;;;3.70;3.30;;;;;;;36.85;24.70;100265.96;104265;277;103792;-57
2023/06/26 09:03:51;;;;;;;4.20;3.30;;;;;;;36.72;24.56;100267.11;104247;277;115316;-56
2023/06/26 09:06:25;;;;;;;3.90;3.50;;;;;;;36.33;24.75;100261.27;104261;277;93981;-57
2023/06/26 09:09:00;;;;;;;4.10;3.70;;;;;;;35.87;24.94;100263.35;104293;277;97954;-55
2023/06/26 09:11:34;;;;;;;4.50;3.60;;;;;;;35.63;25.52;100265.36;104302;277;119948;-55
2023/06/26 09:14:10;;;;;;;4.40;3.30;;;;;;;35.71;26.39;100260.11;104051;279;103222;-57
2023/06/26 09:16:49;;;;;;;4.00;3.60;;;;;;;35.08;26.65;100263.02;104253;265;113954;-58
2023/06/26 09:19:23;;;;;;;3.90;3.50;;;;;;;34.71;27.18;100261.39;104688;277;92645;-57
2023/06/26 09:21:58;;;;;;;3.40;3.10;;;;;;;34.78;27.41;100262.64;104031;277;100070;-57
2023/06/26 09:24:34;;;;;;;3.80;3.50;;;;;;;34.96;27.41;100250.36;104315;277;119995;-57
2023/06/26 09:27:08;;;;;;;4.00;3.70;;;;;;;34.94;26.54;100246.23;104260;277;105502;-57
2023/06/26 09:29:46;;;;;;;4.20;3.60;;;;;;;34.91;26.59;100242.36;104284;277;114696;-55
2023/06/26 09:32:20;;;;;;;4.40;4.00;;;;;;;34.87;26.32;100243.61;104250;277;93637;-54
2023/06/26 09:34:56;;;;;;;4.50;3.80;;;;;;;34.60;26.69;100246.64;104307;277;97930;-56
2023/06/26 09:37:31;;;;;;;4.80;3.60;;;;;;;34.34;26.90;100247.83;104281;277;119907;-57
2023/06/26 09:40:07;;;;;;;5.10;3.30;;;;;;;33.80;26.67;100250.47;104057;277;104415;-54
2023/06/26 09:42:43;;;;;;;4.40;4.00;;;;;;;33.25;27.50;100248.48;104238;266;114067;-54
2023/06/26 09:45:24;;;;;;;5.50;3.60;;;;;;;32.59;27.69;100248.02;104280;277;94100;-54
2023/06/26 09:48:03;;;;;;;5.90;3.40;;;;;;;32.14;28.26;100246.05;104237;277;96361;-55
2023/06/26 09:50:42;;;;;;;4.50;3.50;;;;;;;32.34;28.56;100248.93;104256;277;120580;-56
2023/06/26 09:53:18;;;;;;;6.90;4.40;;;;;;;32.58;28.88;100241.23;104245;281;105315;-57
2023/06/26 09:55:52;;;;;;;4.10;3.00;;;;;;;32.51;27.69;100242.52;104042;282;114779;-56
2023/06/26 09:58:28;;;;;;;4.50;3.00;;;;;;;32.38;27.29;100239.27;104723;277;94230;-56
2023/06/26 10:01:03;;;;;;;5.60;3.20;;;;;;;32.51;27.28;100241.80;104322;273;96788;-56
2023/06/26 10:03:37;;;;;;;3.90;2.90;;;;;;;32.46;27.12;100235.86;104289;277;118251;-57
2023/06/26 10:06:13;;;;;;;5.80;3.40;;;;;;;32.39;28.14;100239.46;104313;277;105227;-57
2023/06/26 10:08:48;;;;;;;4.50;3.20;;;;;;;32.16;28.73;100235.65;104273;277;115089;-56
2023/06/26 10:11:27;;;;;;;4.10;3.30;;;;;;;31.99;28.64;100233.98;104277;277;94112;-57
2023/06/26 10:14:04;;;;;;;4.60;3.20;;;;;;;31.72;29.24;100239.04;104327;277;96776;-57
2023/06/26 10:16:42;;;;;;;3.80;3.40;;;;;;;31.81;29.93;100231.27;104748;277;120687;-57
2023/06/26 10:19:23;;;;;;;3.40;3.10;;;;;;;31.93;29.40;100228.77;104284;277;106107;-57
2023/06/26 10:21:59;;;;;;;4.60;3.10;;;;;;;32.05;29.32;100224.48;104279;277;115309;-56
2023/06/26 10:24:36;;;;;;;4.00;3.30;;;;;;;32.46;29.27;100218.17;104224;277;93929;-56
2023/06/26 10:27:17;;;;;;;5.10;3.20;;;;;;;32.41;28.40;100216.61;104292;277;97475;-57
2023/06/26 10:29:54;;;;;;;3.50;3.20;;;;;;;31.77;28.22;100212.80;104259;277;121830;-56
2023/06/26 10:32:30;;;;;;;4.10;3.30;;;;;;;31.47;28.67;100214.64;104282;277;104929;-56
2023/06/26 10:35:06;;;;;;;3.70;3.30;;;;;;;31.01;29.14;100213.34;104300;277;116078;-56
2023/06/26 10:37:51;;;;;;;5.20;3.20;;;;;;;30.66;29.56;100214.07;104243;277;95080;-56
2023/06/26 10:40:40;;;;;;;3.40;3.10;;;;;;;30.05;29.57;100204.89;104287;277;97320;-54
2023/06/26 10:43:15;;;;;;;3.80;3.30;;;;;;;29.71;30.06;100216.13;104702;277;121517;-54
2023/06/26 10:45:53;;;;;;;4.10;3.60;;;;;;;29.58;30.40;100212.61;104758;277;104329;-56
2023/06/26 10:48:31;;;;;;;3.70;3.40;;;;;;;29.45;30.81;100216.91;104283;277;114657;-57
2023/06/26 10:51:19;;;;;;;4.40;3.40;;;;;;;29.51;31.02;100212.30;104289;277;92836;-57
2023/06/26 10:53:58;;;;;;;3.90;3.50;;;;;;;29.91;31.26;100207.98;104321;277;95910;-55
2023/06/26 10:56:57;;;;;;;4.20;3.40;;;;;;;30.33;30.97;100197.34;104264;277;120429;-55
2023/06/26 10:59:33;;;;;;;4.80;3.80;;;;;;;30.47;31.03;100199.71;104159;277;103350;-57
2023/06/26 11:02:09;;;;;;;6.10;3.60;;;;;;;30.41;31.15;100199.90;104263;277;114714;-57
2023/06/26 11:04:47;;;;;;;3.90;3.20;;;;;;;29.97;30.47;100199.95;104277;277;94909;-54
2023/06/26 11:07:24;;;;;;;4.20;3.70;;;;;;;29.65;30.84;100201.41;104322;266;95799;-55
2023/06/26 11:10:03;;;;;;;4.80;3.40;;;;;;;29.54;31.16;100198.76;104256;277;120439;-55
2023/06/26 11:12:42;;;;;;;3.80;3.20;;;;;;;29.34;31.56;100199.02;104323;277;105606;-55
2023/06/26 11:15:19;;;;;;;4.30;3.00;;;;;;;29.29;32.06;100196.98;104277;277;114371;-57
2023/06/26 11:17:54;;;;;;;3.50;3.20;;;;;;;29.14;32.42;100191.09;104706;277;94967;-57
2023/06/26 11:20:30;;;;;;;3.40;3.00;;;;;;;29.01;32.39;100189.69;104707;277;98151;-54
2023/06/26 11:23:06;;;;;;;5.50;3.30;;;;;;;28.91;32.38;100180.48;104256;277;120907;-55
2023/06/26 11:25:41;;;;;;;4.90;4.00;;;;;;;28.95;32.08;100182.34;104713;277;105693;-54
2023/06/26 11:28:16;;;;;;;4.80;3.90;;;;;;;29.41;31.90;100170.92;104278;277;113623;-54
2023/06/26 11:30:50;;;;;;;3.50;3.20;;;;;;;29.66;31.57;100168.75;104292;277;93867;-55
2023/06/26 11:33:29;;;;;;;3.20;2.90;;;;;;;29.72;32.04;100168.56;104278;277;96899;-55
2023/06/26 11:36:15;;;;;;;4.30;3.30;;;;;;;29.59;32.38;100174.04;104080;277;123039;-57
2023/06/26 11:38:58;;;;;;;3.60;2.80;;;;;;;29.45;32.40;100172.45;103919;277;107053;-55
2023/06/26 11:41:34;;;;;;;3.60;2.70;;;;;;;29.40;31.96;100171.63;104271;277;112198;-54
2023/06/26 11:44:10;;;;;;;3.00;2.70;;;;;;;29.33;32.11;100172.77;104037;268;96785;-55
2023/06/26 11:46:44;;;;;;;3.20;2.90;;;;;;;29.14;31.52;100176.70;104283;277;97377;-55
2023/06/26 11:49:22;;;;;;;4.00;2.90;;;;;;;28.85;31.18;100168.14;104285;277;119243;-57
2023/06/26 11:51:57;;;;;;;3.40;3.10;;;;;;;28.63;31.28;100167.13;104064;277;104645;-57
2023/06/26 11:54:33;;;;;;;4.00;3.00;;;;;;;28.76;31.35;100163.56;104271;277;112296;-54
2023/06/26 11:57:08;;;;;;;3.90;2.80;;;;;;;29.10;31.16;100159.71;104259;277;94283;-54
2023/06/26 11:59:43;;;;;;;4.20;3.10;;;;;;;29.45;31.03;100160.58;104734;277;97356;-57